createdAt,value
2019-03-03T00:01:33.885Z,100607.59
2019-03-03T00:04:04.546Z,100606.23
2019-03-03T00:06:34.722Z,100596.44
2019-03-03T00:09:08.268Z,100589.09
2019-03-03T00:11:39.441Z,100588.84
2019-03-03T00:14:12.306Z,100585.55
2019-03-03T00:16:42.939Z,100587.17
2019-03-03T00:19:16.169Z,100587.94
2019-03-03T00:21:49.342Z,100575.98
2019-03-03T00:24:18.727Z,100576.52
2019-03-03T00:26:52.203Z,100567.81
2019-03-03T00:29:22.961Z,100556.97
2019-03-03T00:31:54.482Z,100556.44
2019-03-03T00:34:27.964Z,100565.13
2019-03-03T00:38:01.614Z,100553.43
2019-03-03T00:40:52.336Z,100558.90
2019-03-03T00:43:29.750Z,100558.90
2019-03-03T00:46:08.313Z,100555.36
2019-03-03T00:48:50.445Z,100555.90
2019-03-03T00:51:25.987Z,100559.69
2019-03-03T00:56:03.960Z,100559.98
2019-03-03T00:58:43.854Z,100550.20
2019-03-03T01:01:25.350Z,100557.28
2019-03-03T01:04:05.091Z,100556.75
2019-03-03T01:07:41.972Z,100564.62
2019-03-03T01:10:15.572Z,100560.26
2019-03-03T01:12:59.802Z,100559.16
2019-03-03T01:15:34.735Z,100549.38
2019-03-03T01:18:09.999Z,100525.73
2019-03-03T01:20:47.592Z,100533.59
2019-03-03T01:24:25.676Z,100520.29
2019-03-03T01:26:57.690Z,100515.13
2019-03-03T01:29:28.946Z,100511.02
2019-03-03T01:31:59.085Z,100514.84
2019-03-03T01:34:32.140Z,100512.67
2019-03-03T01:37:02.778Z,100518.64
2019-03-03T01:39:35.032Z,100505.01
2019-03-03T01:42:06.539Z,100503.90
2019-03-03T01:44:36.843Z,100506.91
2019-03-03T01:47:07.540Z,100502.29
2019-03-03T01:49:41.792Z,100491.41
2019-03-03T01:52:18.095Z,100477.27
2019-03-03T01:54:49.511Z,100478.88
2019-03-03T01:57:23.776Z,100479.73
2019-03-03T01:59:55.671Z,100486.00
2019-03-03T02:02:27.892Z,100487.62
2019-03-03T02:05:00.912Z,100484.11
2019-03-03T02:07:33.040Z,100492.30
2019-03-03T02:10:02.469Z,100484.69
2019-03-03T02:12:37.044Z,100484.72
2019-03-03T02:15:08.373Z,100486.90
2019-03-03T02:17:39.459Z,100491.80
2019-03-03T02:20:10.596Z,100492.30
2019-03-03T02:22:42.157Z,100490.12
2019-03-03T02:25:13.711Z,100485.51
2019-03-03T02:27:44.805Z,100487.69
2019-03-03T02:30:20.335Z,100483.86
2019-03-03T02:32:55.427Z,100471.37
2019-03-03T02:35:30.409Z,100471.91
2019-03-03T02:38:02.630Z,100462.11
2019-03-03T02:40:31.854Z,100452.59
2019-03-03T02:43:03.292Z,100453.13
2019-03-03T02:45:37.649Z,100449.34
2019-03-03T02:48:08.954Z,100445.00
2019-03-03T02:50:38.227Z,100448.55
2019-03-03T02:53:08.479Z,100434.38
2019-03-03T02:55:38.565Z,100442.00
2019-03-03T02:58:13.209Z,100426.50
2019-03-03T03:00:46.806Z,100423.78
2019-03-03T03:03:18.205Z,100421.31
2019-03-03T03:06:00.598Z,100412.63
2019-03-03T03:11:24.451Z,100410.16
2019-03-03T03:14:16.052Z,100405.28
2019-03-03T03:16:52.136Z,100405.83
2019-03-03T03:19:27.436Z,100399.60
2019-03-03T03:24:46.642Z,100392.27
2019-03-03T03:27:29.433Z,100381.69
2019-03-03T03:30:06.735Z,100365.38
2019-03-03T03:32:43.804Z,100360.27
2019-03-03T03:35:48.370Z,100356.73
2019-03-03T03:41:08.332Z,100345.08
2019-03-03T03:44:48.593Z,100340.71
2019-03-03T03:47:27.510Z,100330.95
2019-03-03T03:50:04.053Z,100327.98
2019-03-03T03:52:38.197Z,100320.41
2019-03-03T03:55:14.664Z,100316.91
2019-03-03T03:57:51.859Z,100307.69
2019-03-03T04:00:36.468Z,100299.83
2019-03-03T04:05:17.540Z,100302.02
2019-03-03T04:08:06.684Z,100290.66
2019-03-03T04:10:49.949Z,100280.08
2019-03-03T04:13:27.067Z,100270.06
2019-03-03T04:16:09.629Z,100275.75
2019-03-03T04:19:16.326Z,100263.53
2019-03-03T04:21:53.478Z,100257.28
2019-03-03T04:25:49.273Z,100249.14
2019-03-03T04:28:29.898Z,100234.77
2019-03-03T04:31:25.905Z,100233.66
2019-03-03T04:34:01.236Z,100230.69
2019-03-03T04:36:39.714Z,100227.98
2019-03-03T04:39:16.342Z,100220.36
2019-03-03T04:43:55.272Z,100218.75
2019-03-03T04:46:37.326Z,100212.51
2019-03-03T04:49:12.463Z,100203.58
2019-03-03T04:51:59.500Z,100199.22
2019-03-03T04:54:41.614Z,100189.46
2019-03-03T04:57:23.746Z,100188.35
2019-03-03T05:00:02.923Z,100183.45
2019-03-03T05:02:39.455Z,100183.45
2019-03-03T05:05:29.890Z,100184.56
2019-03-03T05:08:15.868Z,100180.21
2019-03-03T05:10:52.179Z,100187.57
2019-03-03T05:13:29.951Z,100185.39
2019-03-03T05:16:08.549Z,100179.13
2019-03-03T05:19:14.968Z,100192.13
2019-03-03T05:21:44.423Z,100183.45
2019-03-03T05:24:14.241Z,100179.92
2019-03-03T05:26:47.588Z,100170.98
2019-03-03T05:29:21.980Z,100156.09
2019-03-03T05:31:55.586Z,100159.64
2019-03-03T05:34:26.013Z,100151.53
2019-03-03T05:36:57.979Z,100143.94
2019-03-03T05:39:32.525Z,100132.83
2019-03-03T05:42:04.840Z,100136.90
2019-03-03T05:44:38.297Z,100132.28
2019-03-03T05:47:10.016Z,100113.81
2019-03-03T05:49:41.200Z,100110.82
2019-03-03T05:52:13.959Z,100104.31
2019-03-03T05:54:45.240Z,100092.64
2019-03-03T05:57:19.654Z,100080.42
2019-03-03T05:59:51.444Z,100068.78
2019-03-03T06:02:23.528Z,100061.71
2019-03-03T06:04:54.600Z,100052.78
2019-03-03T06:07:24.796Z,100048.14
2019-03-03T06:09:54.988Z,100048.70
2019-03-03T06:12:26.219Z,100035.67
2019-03-03T06:14:55.492Z,100022.92
2019-03-03T06:17:26.398Z,100013.66
2019-03-03T06:19:59.151Z,100002.27
2019-03-03T06:22:30.554Z,100007.41
2019-03-03T06:25:01.460Z,99990.34
2019-03-03T06:27:33.819Z,99978.37
2019-03-03T06:30:07.227Z,99974.05
2019-03-03T06:32:42.194Z,99980.31
2019-03-03T06:35:14.162Z,99979.48
2019-03-03T06:37:48.561Z,99963.19
2019-03-03T06:40:20.765Z,99959.41
2019-03-03T06:42:53.078Z,99948.27
2019-03-03T06:45:27.478Z,99952.64
2019-03-03T06:47:58.590Z,99943.95
2019-03-03T06:50:28.769Z,99935.52
2019-03-03T06:53:06.501Z,99934.70
2019-03-03T06:55:42.525Z,99925.21
2019-03-03T06:58:16.526Z,99923.61
2019-03-03T07:00:50.813Z,99918.70
2019-03-03T07:03:23.577Z,99911.63
2019-03-03T07:05:53.089Z,99905.11
2019-03-03T07:08:24.771Z,99900.75
2019-03-03T07:10:56.560Z,99895.03
2019-03-03T07:13:26.780Z,99901.22
2019-03-03T07:15:57.282Z,99901.45
2019-03-03T07:18:27.631Z,99897.07
2019-03-03T07:23:39.194Z,99886.96
2019-03-03T07:26:08.599Z,99892.08
2019-03-03T07:28:38.676Z,99882.23
2019-03-03T07:31:16.748Z,99884.85
2019-03-03T07:33:52.864Z,99890.52
2019-03-03T07:36:31.462Z,99887.66
2019-03-03T07:39:00.885Z,99890.11
2019-03-03T07:41:35.767Z,99892.52
2019-03-03T07:44:08.122Z,99883.47
2019-03-03T07:46:45.555Z,99876.38
2019-03-03T07:49:21.328Z,99878.87
2019-03-03T07:51:51.340Z,99884.16
2019-03-03T07:54:27.564Z,99879.95
2019-03-03T07:56:59.614Z,99876.55
2019-03-03T07:59:29.236Z,99886.25
2019-03-03T08:02:00.658Z,99886.94
2019-03-03T08:04:37.096Z,99878.13
2019-03-03T08:07:08.870Z,99875.88
2019-03-03T08:09:38.934Z,99877.74
2019-03-03T08:12:10.885Z,99891.80
2019-03-03T08:14:51.121Z,99885.47
2019-03-03T08:17:29.765Z,99887.53
2019-03-03T08:20:06.445Z,99876.57
2019-03-03T08:22:43.118Z,99890.70
2019-03-03T08:25:23.162Z,99878.71
2019-03-03T08:27:55.000Z,99883.00
2019-03-03T08:30:28.060Z,99887.02
2019-03-03T08:33:01.136Z,99891.57
2019-03-03T08:35:36.596Z,99896.16
2019-03-03T08:38:07.007Z,99881.69
2019-03-03T08:40:36.905Z,99888.42
2019-03-03T08:43:10.690Z,99895.20
2019-03-03T08:47:02.897Z,99879.09
2019-03-03T08:49:42.499Z,99889.95
2019-03-03T08:52:25.926Z,99879.05
2019-03-03T08:56:09.173Z,99879.05
2019-03-03T08:59:46.188Z,99883.38
2019-03-03T09:02:22.367Z,99883.09
2019-03-03T09:05:01.292Z,99873.55
2019-03-03T09:08:07.503Z,99864.25
2019-03-03T09:12:55.762Z,99866.94
2019-03-03T09:19:51.143Z,99861.96
2019-03-03T09:22:26.724Z,99861.49
2019-03-03T09:25:03.692Z,99852.77
2019-03-03T09:27:42.757Z,99852.22
2019-03-03T09:30:27.145Z,99848.67
2019-03-03T09:35:07.591Z,99842.13
2019-03-03T09:37:42.606Z,99838.05
2019-03-03T09:40:20.320Z,99829.05
2019-03-03T09:43:02.651Z,99824.96
2019-03-03T09:46:11.363Z,99815.66
2019-03-03T09:48:51.843Z,99815.92
2019-03-03T09:52:26.765Z,99803.66
2019-03-03T09:55:13.799Z,99808.56
2019-03-03T09:58:24.247Z,99814.30
2019-03-03T10:01:04.345Z,99796.58
2019-03-03T10:03:47.405Z,99803.97
2019-03-03T10:06:42.685Z,99794.11
2019-03-03T10:10:18.897Z,99790.53
2019-03-03T10:12:55.489Z,99774.95
2019-03-03T10:15:30.603Z,99760.47
2019-03-03T10:18:38.500Z,99765.05
2019-03-03T10:21:18.589Z,99747.28
2019-03-03T10:23:53.197Z,99751.88
2019-03-03T10:28:33.393Z,99744.48
2019-03-03T10:31:09.796Z,99726.20
2019-03-03T10:33:48.870Z,99728.07
2019-03-03T10:36:26.103Z,99720.13
2019-03-03T10:39:08.151Z,99710.30
2019-03-03T10:41:44.162Z,99698.58
2019-03-03T10:44:22.929Z,99694.72
2019-03-03T10:47:59.824Z,99687.91
2019-03-03T10:51:07.104Z,99677.58
2019-03-03T10:53:48.222Z,99661.27
2019-03-03T10:56:44.305Z,99652.28
2019-03-03T10:59:26.263Z,99650.19
2019-03-03T11:03:08.737Z,99640.16
2019-03-03T11:05:44.092Z,99630.93
2019-03-03T11:09:24.422Z,99628.20
2019-03-03T11:11:58.912Z,99629.80
2019-03-03T11:16:39.389Z,99623.42
2019-03-03T11:19:15.074Z,99600.23
2019-03-03T11:21:50.457Z,99600.14
2019-03-03T11:24:29.052Z,99582.41
2019-03-03T11:27:05.063Z,99577.22
2019-03-03T11:29:52.743Z,99575.22
2019-03-03T11:32:36.545Z,99562.40
2019-03-03T11:37:58.149Z,99542.61
2019-03-03T11:40:35.463Z,99531.05
2019-03-03T11:43:13.904Z,99533.08
2019-03-03T11:45:49.026Z,99518.30
2019-03-03T11:48:24.679Z,99511.26
2019-03-03T11:51:06.967Z,99503.63
2019-03-03T11:54:00.249Z,99494.41
2019-03-03T11:56:35.892Z,99484.30
2019-03-03T12:03:29.695Z,99475.86
2019-03-03T12:06:25.202Z,99458.55
2019-03-03T12:09:20.483Z,99445.30
2019-03-03T12:11:57.478Z,99432.06
2019-03-03T12:14:40.970Z,99419.30
2019-03-03T12:17:17.718Z,99414.98
2019-03-03T12:19:52.447Z,99399.72
2019-03-03T12:22:28.802Z,99376.31
2019-03-03T12:25:07.412Z,99371.19
2019-03-03T12:27:54.398Z,99343.11
2019-03-03T12:30:36.365Z,99326.75
2019-03-03T12:33:17.641Z,99311.60
2019-03-03T12:35:52.539Z,99293.63
2019-03-03T12:38:33.053Z,99277.59
2019-03-03T12:41:24.694Z,99273.02
2019-03-03T12:44:06.212Z,99242.80
2019-03-03T12:46:41.929Z,99242.88
2019-03-03T12:49:25.411Z,99230.70
2019-03-03T12:52:05.267Z,99217.86
2019-03-03T12:54:44.653Z,99210.01
2019-03-03T12:57:26.231Z,99205.44
2019-03-03T13:00:06.230Z,99199.76
2019-03-03T13:04:45.859Z,99194.96
2019-03-03T13:08:22.219Z,99174.05
2019-03-03T13:11:57.421Z,99155.52
2019-03-03T13:17:25.509Z,99133.16
2019-03-03T13:22:10.414Z,99115.59
2019-03-03T13:29:33.363Z,99090.00
2019-03-03T13:33:09.392Z,99070.87
2019-03-03T13:36:00.409Z,99052.42
2019-03-03T13:38:41.979Z,99036.20
2019-03-03T13:42:27.869Z,99036.02
2019-03-03T13:45:06.185Z,99028.92
2019-03-03T13:47:39.838Z,99014.40
2019-03-03T13:50:13.386Z,98998.42
2019-03-03T13:52:47.390Z,98999.12
2019-03-03T13:55:18.055Z,98994.34
2019-03-03T13:57:55.840Z,98987.27
2019-03-03T14:03:02.305Z,98968.24
2019-03-03T14:05:33.028Z,98952.61
2019-03-03T14:08:04.190Z,98931.92
2019-03-03T14:10:38.624Z,98938.50
2019-03-03T14:13:08.808Z,98918.09
2019-03-03T14:15:38.513Z,98923.58
2019-03-03T14:18:14.625Z,98910.52
2019-03-03T14:20:44.695Z,98903.59
2019-03-03T14:23:15.263Z,98905.19
2019-03-03T14:25:51.910Z,98884.25
2019-03-03T14:28:21.591Z,98891.31
2019-03-03T14:30:54.140Z,98896.34
2019-03-03T14:33:28.053Z,98893.94
2019-03-03T14:35:58.685Z,98890.41
2019-03-03T14:38:31.455Z,98880.15
2019-03-03T14:41:02.936Z,98873.77
2019-03-03T14:43:33.752Z,98879.48
2019-03-03T14:46:11.933Z,98888.36
2019-03-03T14:48:43.972Z,98899.08
2019-03-03T14:51:20.273Z,98884.03
2019-03-03T14:53:50.805Z,98898.28
2019-03-03T14:56:21.293Z,98899.07
2019-03-03T14:58:53.156Z,98905.77
2019-03-03T15:01:22.439Z,98894.49
2019-03-03T15:03:54.273Z,98894.02
2019-03-03T15:06:24.671Z,98885.23
2019-03-03T15:09:05.083Z,98892.84
2019-03-03T15:11:43.431Z,98908.09
2019-03-03T15:14:14.334Z,98938.81
2019-03-03T15:16:44.736Z,98925.94
2019-03-03T15:19:14.718Z,98908.72
2019-03-03T15:21:44.603Z,98923.11
2019-03-03T15:24:15.013Z,98930.48
2019-03-03T15:26:54.305Z,98935.13
2019-03-03T15:29:25.633Z,98919.73
2019-03-03T15:31:56.257Z,98940.80
2019-03-03T15:34:25.368Z,98951.10
2019-03-03T15:36:55.947Z,98935.97
2019-03-03T15:39:25.387Z,98930.68
2019-03-03T15:41:57.922Z,98942.55
2019-03-03T15:44:33.309Z,98915.57
2019-03-03T15:47:06.581Z,98927.34
2019-03-03T15:49:37.295Z,98927.30
2019-03-03T15:52:12.689Z,98930.91
2019-03-03T15:54:44.534Z,98944.98
2019-03-03T15:57:19.165Z,98932.72
2019-03-03T15:59:55.732Z,98946.65
2019-03-03T16:02:26.664Z,98934.16
2019-03-03T16:05:00.575Z,98952.69
2019-03-03T16:07:35.989Z,98938.33
2019-03-03T16:10:06.359Z,98926.98
2019-03-03T16:12:38.974Z,98941.39
2019-03-03T16:15:11.497Z,98931.77
2019-03-03T16:17:42.877Z,98933.36
2019-03-03T16:20:19.105Z,98933.22
2019-03-03T16:22:53.072Z,98935.58
2019-03-03T16:25:25.268Z,98939.61
2019-03-03T16:28:00.562Z,98938.99
2019-03-03T16:30:34.381Z,98956.81
2019-03-03T16:33:07.280Z,98961.05
2019-03-03T16:35:45.119Z,98949.16
2019-03-03T16:38:16.997Z,98924.07
2019-03-03T16:40:47.277Z,98938.57
2019-03-03T16:43:17.472Z,98939.94
2019-03-03T16:45:50.963Z,98946.48
2019-03-03T16:48:21.129Z,98939.39
2019-03-03T16:50:55.295Z,98930.99
2019-03-03T16:53:25.669Z,98935.30
2019-03-03T16:56:00.827Z,98960.28
2019-03-03T16:58:33.754Z,98959.11
2019-03-03T17:01:02.923Z,98943.17
2019-03-03T17:03:32.980Z,98942.80
2019-03-03T17:06:06.368Z,98942.29
2019-03-03T17:11:24.455Z,98935.91
2019-03-03T17:13:56.086Z,98920.23
2019-03-03T17:16:28.319Z,98922.22
2019-03-03T17:19:00.616Z,98942.58
2019-03-03T17:21:31.332Z,98905.70
2019-03-03T17:24:05.671Z,98906.58
2019-03-03T17:29:14.111Z,98911.08
2019-03-03T17:31:45.355Z,98919.16
2019-03-03T17:34:15.939Z,98924.92
2019-03-03T17:36:46.981Z,98923.23
2019-03-03T17:39:17.665Z,98910.28
2019-03-03T17:41:46.684Z,98912.75
2019-03-03T17:44:21.787Z,98931.56
2019-03-03T17:46:55.941Z,98932.13
2019-03-03T17:49:31.262Z,98939.64
2019-03-03T17:52:01.789Z,98922.61
2019-03-03T17:54:34.355Z,98936.38
2019-03-03T17:57:08.126Z,98943.07
2019-03-03T17:59:44.211Z,98943.95
2019-03-03T18:02:16.838Z,98960.84
2019-03-03T18:04:49.891Z,98963.63
2019-03-03T18:07:19.979Z,98965.73
2019-03-03T18:09:50.507Z,98964.98
2019-03-03T18:12:20.030Z,98982.34
2019-03-03T18:14:56.351Z,98954.91
2019-03-03T18:17:26.224Z,98970.59
2019-03-03T18:19:58.237Z,98968.52
2019-03-03T18:22:30.269Z,98946.92
2019-03-03T18:25:02.811Z,98972.02
2019-03-03T18:27:36.131Z,98982.66
2019-03-03T18:30:10.046Z,98994.15
2019-03-03T18:32:49.154Z,98980.39
2019-03-03T18:35:20.102Z,98984.72
2019-03-03T18:37:52.513Z,98994.62
2019-03-03T18:40:28.383Z,98991.52
2019-03-03T18:43:08.451Z,99000.00
2019-03-03T18:45:45.293Z,98987.67
2019-03-03T18:48:18.593Z,99002.78
2019-03-03T18:50:53.618Z,99018.87
2019-03-03T18:53:25.875Z,99021.42
2019-03-03T18:55:55.408Z,99021.64
2019-03-03T18:58:26.197Z,99015.08
2019-03-03T19:01:01.527Z,99027.19
2019-03-03T19:03:31.297Z,99059.72
2019-03-03T19:06:06.453Z,99039.10
2019-03-03T19:11:18.968Z,99061.78
2019-03-03T19:13:54.633Z,99041.80
2019-03-03T19:16:32.763Z,99052.80
2019-03-03T19:19:03.517Z,99064.95
2019-03-03T19:21:34.029Z,99061.30
2019-03-03T19:24:07.786Z,99060.52
2019-03-03T19:26:39.894Z,99075.21
2019-03-03T19:29:16.020Z,99084.12
2019-03-03T19:31:52.202Z,99086.69
2019-03-03T19:34:29.418Z,99097.30
2019-03-03T19:36:59.745Z,99090.67
2019-03-03T19:39:37.222Z,99099.75
2019-03-03T19:42:11.273Z,99099.34
2019-03-03T19:44:47.039Z,99119.10
2019-03-03T19:47:17.737Z,99116.21
2019-03-03T19:49:47.926Z,99105.62
2019-03-03T19:52:24.427Z,99124.77
2019-03-03T19:55:02.485Z,99117.51
2019-03-03T19:57:34.731Z,99120.98
2019-03-03T20:00:05.415Z,99117.69
2019-03-03T20:02:41.266Z,99131.97
2019-03-03T20:05:13.797Z,99151.14
2019-03-03T20:07:48.079Z,99153.28
2019-03-03T20:10:26.305Z,99148.03
2019-03-03T20:13:03.238Z,99149.27
2019-03-03T20:15:37.158Z,99153.66
2019-03-03T20:18:10.578Z,99154.53
2019-03-03T20:20:44.658Z,99172.55
2019-03-03T20:23:16.902Z,99163.81
2019-03-03T20:28:26.642Z,99168.52
2019-03-03T20:30:59.675Z,99180.47
2019-03-03T20:33:32.665Z,99183.31
2019-03-03T20:36:06.017Z,99164.64
2019-03-03T20:38:39.570Z,99156.80
2019-03-03T20:41:14.652Z,99136.52
2019-03-03T20:43:48.178Z,99146.75
2019-03-03T20:46:30.111Z,99135.52
2019-03-03T20:49:07.027Z,99129.72
2019-03-03T20:51:40.816Z,99133.91
2019-03-03T20:54:18.594Z,99139.08
2019-03-03T20:56:48.827Z,99125.81
2019-03-03T20:59:24.294Z,99132.05
2019-03-03T21:01:57.245Z,99120.83
2019-03-03T21:04:28.759Z,99113.67
2019-03-03T21:07:06.417Z,99115.06
2019-03-03T21:09:39.109Z,99121.54
2019-03-03T21:12:09.552Z,99130.48
2019-03-03T21:14:40.387Z,99128.45
2019-03-03T21:17:13.233Z,99141.20
2019-03-03T21:19:45.581Z,99122.88
2019-03-03T21:22:18.787Z,99115.90
2019-03-03T21:24:51.078Z,99110.83
2019-03-03T21:27:22.781Z,99095.17
2019-03-03T21:29:53.501Z,99091.38
2019-03-03T21:32:24.034Z,99078.28
2019-03-03T21:34:56.432Z,99088.34
2019-03-03T21:37:29.518Z,99086.23
2019-03-03T21:40:00.794Z,99085.30
2019-03-03T21:42:36.459Z,99070.55
2019-03-03T21:45:09.941Z,99055.25
2019-03-03T21:47:49.009Z,99055.91
2019-03-03T21:50:24.043Z,99058.98
2019-03-03T21:53:01.496Z,99062.00
2019-03-03T21:55:31.794Z,99059.05
2019-03-03T21:58:02.285Z,99060.14
2019-03-03T22:00:39.370Z,99058.79
2019-03-03T22:03:12.567Z,99037.48
2019-03-03T22:05:44.139Z,99030.25
2019-03-03T22:08:24.672Z,99034.13
2019-03-03T22:10:59.145Z,99032.84
2019-03-03T22:13:30.576Z,99038.80
2019-03-03T22:16:01.805Z,99056.42
2019-03-03T22:18:32.922Z,99050.38
2019-03-03T22:21:03.874Z,99033.50
2019-03-03T22:23:34.420Z,99035.36
2019-03-03T22:26:09.897Z,99042.41
2019-03-03T22:28:39.590Z,99033.46
2019-03-03T22:31:09.625Z,99024.52
2019-03-03T22:33:42.599Z,99024.59
2019-03-03T22:36:13.316Z,99034.39
2019-03-03T22:38:47.444Z,99043.56
2019-03-03T22:44:39.121Z,99025.45
2019-03-03T22:47:13.303Z,99040.39
2019-03-03T22:49:53.975Z,99038.27
2019-03-03T22:52:30.096Z,99035.24
2019-03-03T22:55:00.917Z,99014.91
2019-03-03T22:57:37.730Z,99010.84
2019-03-03T23:00:18.418Z,99004.42
2019-03-03T23:02:50.037Z,98992.77
2019-03-03T23:05:30.247Z,98993.32
2019-03-03T23:08:11.549Z,99002.57
2019-03-03T23:10:52.009Z,99007.98
2019-03-03T23:13:35.033Z,99010.20
2019-03-03T23:16:20.550Z,99007.25
2019-03-03T23:19:20.982Z,99005.28
2019-03-03T23:24:04.670Z,98986.27
2019-03-03T23:26:35.947Z,98982.94
2019-03-03T23:29:12.207Z,98990.25
2019-03-03T23:31:49.189Z,98998.66
2019-03-03T23:34:22.577Z,98993.47
2019-03-03T23:36:53.144Z,98988.86
2019-03-03T23:39:25.314Z,98986.77
2019-03-03T23:41:58.811Z,98973.38
2019-03-03T23:44:31.098Z,98975.63
2019-03-03T23:47:02.173Z,98975.63
2019-03-03T23:49:32.955Z,98966.10
2019-03-03T23:52:05.047Z,98954.91
2019-03-03T23:54:39.968Z,98952.87
2019-03-03T23:57:09.188Z,98949.20
2019-03-03T23:59:40.974Z,98936.63
